sensor_id;sensor_type;location;lat;lon;timestamp;temperature;humidity
24522;DHT22;12680;57.804;12.190;2023-05-20T00:00:06;9.60;95.50
24522;DHT22;12680;57.804;12.190;2023-05-20T00:02:34;9.60;95.40
24522;DHT22;12680;57.804;12.190;2023-05-20T00:05:01;9.60;95.40
24522;DHT22;12680;57.804;12.190;2023-05-20T00:07:34;9.50;95.50
24522;DHT22;12680;57.804;12.190;2023-05-20T00:10:01;9.50;95.50
24522;DHT22;12680;57.804;12.190;2023-05-20T00:12:28;9.40;95.50
24522;DHT22;12680;57.804;12.190;2023-05-20T00:14:54;9.40;95.60
24522;DHT22;12680;57.804;12.190;2023-05-20T00:17:22;9.40;95.60
24522;DHT22;12680;57.804;12.190;2023-05-20T00:19:48;9.30;95.70
24522;DHT22;12680;57.804;12.190;2023-05-20T00:22:15;9.30;95.90
24522;DHT22;12680;57.804;12.190;2023-05-20T00:24:42;9.30;95.90
24522;DHT22;12680;57.804;12.190;2023-05-20T00:27:13;9.30;96.00
24522;DHT22;12680;57.804;12.190;2023-05-20T00:29:44;9.30;96.00
24522;DHT22;12680;57.804;12.190;2023-05-20T00:32:11;9.20;96.00
24522;DHT22;12680;57.804;12.190;2023-05-20T00:34:42;9.20;96.10
24522;DHT22;12680;57.804;12.190;2023-05-20T00:37:10;10.00;96.40
24522;DHT22;12680;57.804;12.190;2023-05-20T00:39:36;9.20;96.20
24522;DHT22;12680;57.804;12.190;2023-05-20T00:42:07;9.20;96.20
24522;DHT22;12680;57.804;12.190;2023-05-20T00:44:34;9.10;96.20
24522;DHT22;12680;57.804;12.190;2023-05-20T00:47:01;9.10;96.30
24522;DHT22;12680;57.804;12.190;2023-05-20T00:49:31;9.10;96.40
24522;DHT22;12680;57.804;12.190;2023-05-20T00:51:58;9.20;96.50
24522;DHT22;12680;57.804;12.190;2023-05-20T00:54:25;9.10;96.40
24522;DHT22;12680;57.804;12.190;2023-05-20T00:56:52;9.10;96.50
24522;DHT22;12680;57.804;12.190;2023-05-20T00:59:20;9.10;96.40
24522;DHT22;12680;57.804;12.190;2023-05-20T01:01:47;9.10;96.40
24522;DHT22;12680;57.804;12.190;2023-05-20T01:04:18;9.10;96.40
24522;DHT22;12680;57.804;12.190;2023-05-20T01:06:48;9.00;96.50
24522;DHT22;12680;57.804;12.190;2023-05-20T01:09:15;9.00;96.50
24522;DHT22;12680;57.804;12.190;2023-05-20T01:11:47;9.00;96.50
24522;DHT22;12680;57.804;12.190;2023-05-20T01:14:17;8.90;96.60
24522;DHT22;12680;57.804;12.190;2023-05-20T01:16:45;8.90;96.70
24522;DHT22;12680;57.804;12.190;2023-05-20T01:19:37;8.90;96.70
24522;DHT22;12680;57.804;12.190;2023-05-20T01:22:08;8.90;96.80
24522;DHT22;12680;57.804;12.190;2023-05-20T01:24:43;8.90;96.70
24522;DHT22;12680;57.804;12.190;2023-05-20T01:27:11;8.90;96.80
24522;DHT22;12680;57.804;12.190;2023-05-20T01:29:40;8.90;96.80
24522;DHT22;12680;57.804;12.190;2023-05-20T01:32:12;8.90;97.10
24522;DHT22;12680;57.804;12.190;2023-05-20T01:34:41;8.90;97.50
24522;DHT22;12680;57.804;12.190;2023-05-20T01:37:09;8.90;97.20
24522;DHT22;12680;57.804;12.190;2023-05-20T01:39:38;10.30;97.60
24522;DHT22;12680;57.804;12.190;2023-05-20T01:42:08;8.90;97.20
24522;DHT22;12680;57.804;12.190;2023-05-20T01:44:36;8.90;97.30
24522;DHT22;12680;57.804;12.190;2023-05-20T01:47:03;8.90;97.30
24522;DHT22;12680;57.804;12.190;2023-05-20T01:49:30;8.90;97.30
24522;DHT22;12680;57.804;12.190;2023-05-20T01:51:57;8.80;97.40
24522;DHT22;12680;57.804;12.190;2023-05-20T01:54:25;8.80;97.40
24522;DHT22;12680;57.804;12.190;2023-05-20T01:56:52;8.80;97.40
24522;DHT22;12680;57.804;12.190;2023-05-20T01:59:19;8.80;97.50
24522;DHT22;12680;57.804;12.190;2023-05-20T02:01:46;8.80;97.60
24522;DHT22;12680;57.804;12.190;2023-05-20T02:04:13;8.80;97.60
24522;DHT22;12680;57.804;12.190;2023-05-20T02:06:40;8.70;97.60
24522;DHT22;12680;57.804;12.190;2023-05-20T02:09:07;8.70;97.70
24522;DHT22;12680;57.804;12.190;2023-05-20T02:11:34;8.70;97.80
24522;DHT22;12680;57.804;12.190;2023-05-20T02:14:01;9.80;98.00
24522;DHT22;12680;57.804;12.190;2023-05-20T02:16:28;8.70;98.20
24522;DHT22;12680;57.804;12.190;2023-05-20T02:18:56;8.70;97.90
24522;DHT22;12680;57.804;12.190;2023-05-20T02:21:24;8.70;98.00
24522;DHT22;12680;57.804;12.190;2023-05-20T02:23:52;8.70;98.10
24522;DHT22;12680;57.804;12.190;2023-05-20T02:26:19;8.70;98.00
24522;DHT22;12680;57.804;12.190;2023-05-20T02:28:46;8.70;98.10
24522;DHT22;12680;57.804;12.190;2023-05-20T02:31:16;8.70;98.20
24522;DHT22;12680;57.804;12.190;2023-05-20T02:33:44;8.70;98.10
24522;DHT22;12680;57.804;12.190;2023-05-20T02:36:11;8.70;98.20
24522;DHT22;12680;57.804;12.190;2023-05-20T02:38:38;8.70;98.20
24522;DHT22;12680;57.804;12.190;2023-05-20T02:41:05;8.70;98.10
24522;DHT22;12680;57.804;12.190;2023-05-20T02:43:32;8.70;98.20
24522;DHT22;12680;57.804;12.190;2023-05-20T02:46:00;8.70;98.10
24522;DHT22;12680;57.804;12.190;2023-05-20T02:48:27;8.70;98.00
24522;DHT22;12680;57.804;12.190;2023-05-20T02:50:54;8.70;98.00
24522;DHT22;12680;57.804;12.190;2023-05-20T02:53:21;8.70;98.10
24522;DHT22;12680;57.804;12.190;2023-05-20T02:55:48;8.70;98.10
24522;DHT22;12680;57.804;12.190;2023-05-20T02:58:16;8.60;98.10
24522;DHT22;12680;57.804;12.190;2023-05-20T03:00:43;8.60;98.10
24522;DHT22;12680;57.804;12.190;2023-05-20T03:03:10;8.60;98.20
24522;DHT22;12680;57.804;12.190;2023-05-20T03:05:37;8.60;98.20
24522;DHT22;12680;57.804;12.190;2023-05-20T03:08:08;8.60;98.30
24522;DHT22;12680;57.804;12.190;2023-05-20T03:10:37;8.60;98.40
24522;DHT22;12680;57.804;12.190;2023-05-20T03:13:05;8.70;98.40
24522;DHT22;12680;57.804;12.190;2023-05-20T03:15:41;8.70;98.40
24522;DHT22;12680;57.804;12.190;2023-05-20T03:18:08;8.70;98.30
24522;DHT22;12680;57.804;12.190;2023-05-20T03:20:35;8.70;98.30
24522;DHT22;12680;57.804;12.190;2023-05-20T03:23:04;8.70;98.40
24522;DHT22;12680;57.804;12.190;2023-05-20T03:25:31;8.70;98.50
24522;DHT22;12680;57.804;12.190;2023-05-20T03:27:58;8.80;98.50
24522;DHT22;12680;57.804;12.190;2023-05-20T03:30:26;8.80;98.60
24522;DHT22;12680;57.804;12.190;2023-05-20T03:32:54;8.90;98.70
24522;DHT22;12680;57.804;12.190;2023-05-20T03:35:24;8.90;98.60
24522;DHT22;12680;57.804;12.190;2023-05-20T03:37:51;8.90;98.70
24522;DHT22;12680;57.804;12.190;2023-05-20T03:40:19;9.00;98.80
24522;DHT22;12680;57.804;12.190;2023-05-20T03:42:46;9.00;98.90
24522;DHT22;12680;57.804;12.190;2023-05-20T03:45:13;10.70;99.30
24522;DHT22;12680;57.804;12.190;2023-05-20T03:47:41;10.50;99.30
24522;DHT22;12680;57.804;12.190;2023-05-20T03:50:08;9.10;98.90
24522;DHT22;12680;57.804;12.190;2023-05-20T03:52:35;9.20;99.00
24522;DHT22;12680;57.804;12.190;2023-05-20T03:55:03;9.60;99.10
24522;DHT22;12680;57.804;12.190;2023-05-20T03:57:30;9.20;98.90
24522;DHT22;12680;57.804;12.190;2023-05-20T03:59:58;9.30;99.10
24522;DHT22;12680;57.804;12.190;2023-05-20T04:02:24;9.40;99.10
24522;DHT22;12680;57.804;12.190;2023-05-20T04:04:51;9.40;99.10
24522;DHT22;12680;57.804;12.190;2023-05-20T04:07:18;9.60;99.10
24522;DHT22;12680;57.804;12.190;2023-05-20T04:09:45;9.60;99.20
24522;DHT22;12680;57.804;12.190;2023-05-20T04:12:12;9.70;99.30
24522;DHT22;12680;57.804;12.190;2023-05-20T04:14:39;9.80;99.40
24522;DHT22;12680;57.804;12.190;2023-05-20T04:17:08;9.90;99.30
24522;DHT22;12680;57.804;12.190;2023-05-20T04:19:35;10.00;99.50
24522;DHT22;12680;57.804;12.190;2023-05-20T04:22:04;10.00;99.30
24522;DHT22;12680;57.804;12.190;2023-05-20T04:24:31;10.10;99.30
24522;DHT22;12680;57.804;12.190;2023-05-20T04:26:57;10.10;99.40
24522;DHT22;12680;57.804;12.190;2023-05-20T04:29:24;10.20;99.30
24522;DHT22;12680;57.804;12.190;2023-05-20T04:31:51;10.20;99.30
24522;DHT22;12680;57.804;12.190;2023-05-20T04:34:19;10.30;99.30
24522;DHT22;12680;57.804;12.190;2023-05-20T04:36:52;10.30;99.30
24522;DHT22;12680;57.804;12.190;2023-05-20T04:39:19;10.30;99.30
24522;DHT22;12680;57.804;12.190;2023-05-20T04:41:46;10.40;99.40
24522;DHT22;12680;57.804;12.190;2023-05-20T04:44:14;10.40;99.40
24522;DHT22;12680;57.804;12.190;2023-05-20T04:46:40;11.80;99.80
24522;DHT22;12680;57.804;12.190;2023-05-20T04:49:07;10.50;99.50
24522;DHT22;12680;57.804;12.190;2023-05-20T04:51:35;10.60;99.50
24522;DHT22;12680;57.804;12.190;2023-05-20T04:54:01;10.60;99.60
24522;DHT22;12680;57.804;12.190;2023-05-20T04:56:28;10.70;99.60
24522;DHT22;12680;57.804;12.190;2023-05-20T04:58:56;11.60;99.90
24522;DHT22;12680;57.804;12.190;2023-05-20T05:01:24;10.90;99.70
24522;DHT22;12680;57.804;12.190;2023-05-20T05:03:51;11.00;99.60
24522;DHT22;12680;57.804;12.190;2023-05-20T05:06:18;11.10;99.60
24522;DHT22;12680;57.804;12.190;2023-05-20T05:08:45;11.10;99.60
24522;DHT22;12680;57.804;12.190;2023-05-20T05:11:12;11.20;99.70
24522;DHT22;12680;57.804;12.190;2023-05-20T05:13:39;11.20;99.60
24522;DHT22;12680;57.804;12.190;2023-05-20T05:16:06;11.30;99.70
24522;DHT22;12680;57.804;12.190;2023-05-20T05:18:33;11.40;99.70
24522;DHT22;12680;57.804;12.190;2023-05-20T05:21:05;11.50;99.70
24522;DHT22;12680;57.804;12.190;2023-05-20T05:23:32;11.70;99.70
24522;DHT22;12680;57.804;12.190;2023-05-20T05:25:59;11.70;99.70
24522;DHT22;12680;57.804;12.190;2023-05-20T05:28:26;11.90;99.70
24522;DHT22;12680;57.804;12.190;2023-05-20T05:30:54;12.00;99.70
24522;DHT22;12680;57.804;12.190;2023-05-20T05:33:22;12.10;99.60
24522;DHT22;12680;57.804;12.190;2023-05-20T05:35:49;12.20;99.60
24522;DHT22;12680;57.804;12.190;2023-05-20T05:38:16;12.20;99.50
24522;DHT22;12680;57.804;12.190;2023-05-20T05:40:43;12.40;99.50
24522;DHT22;12680;57.804;12.190;2023-05-20T05:43:10;12.50;99.50
24522;DHT22;12680;57.804;12.190;2023-05-20T05:45:37;12.60;99.40
24522;DHT22;12680;57.804;12.190;2023-05-20T05:48:04;12.60;99.30
24522;DHT22;12680;57.804;12.190;2023-05-20T05:50:32;12.70;99.30
24522;DHT22;12680;57.804;12.190;2023-05-20T05:52:59;12.80;99.30
24522;DHT22;12680;57.804;12.190;2023-05-20T05:55:26;12.90;99.30
24522;DHT22;12680;57.804;12.190;2023-05-20T05:57:53;13.00;99.30
24522;DHT22;12680;57.804;12.190;2023-05-20T06:00:20;13.20;99.30
24522;DHT22;12680;57.804;12.190;2023-05-20T06:02:48;13.30;99.20
24522;DHT22;12680;57.804;12.190;2023-05-20T06:05:16;13.40;99.20
24522;DHT22;12680;57.804;12.190;2023-05-20T06:07:43;13.50;99.10
24522;DHT22;12680;57.804;12.190;2023-05-20T06:10:10;13.70;99.10
24522;DHT22;12680;57.804;12.190;2023-05-20T06:12:37;13.80;99.00
24522;DHT22;12680;57.804;12.190;2023-05-20T06:15:04;13.90;99.00
24522;DHT22;12680;57.804;12.190;2023-05-20T06:17:33;14.10;98.90
24522;DHT22;12680;57.804;12.190;2023-05-20T06:20:00;14.20;98.80
24522;DHT22;12680;57.804;12.190;2023-05-20T06:22:27;14.30;98.80
24522;DHT22;12680;57.804;12.190;2023-05-20T06:24:57;14.40;98.70
24522;DHT22;12680;57.804;12.190;2023-05-20T06:27:30;14.60;98.60
24522;DHT22;12680;57.804;12.190;2023-05-20T06:29:57;14.70;98.50
24522;DHT22;12680;57.804;12.190;2023-05-20T06:32:26;14.80;98.40
24522;DHT22;12680;57.804;12.190;2023-05-20T06:34:53;14.90;98.30
24522;DHT22;12680;57.804;12.190;2023-05-20T06:37:20;15.10;98.20
24522;DHT22;12680;57.804;12.190;2023-05-20T06:39:51;15.20;98.20
24522;DHT22;12680;57.804;12.190;2023-05-20T06:42:20;15.40;98.10
24522;DHT22;12680;57.804;12.190;2023-05-20T06:44:47;15.50;97.90
24522;DHT22;12680;57.804;12.190;2023-05-20T06:47:19;15.60;97.70
24522;DHT22;12680;57.804;12.190;2023-05-20T06:49:50;15.80;97.60
24522;DHT22;12680;57.804;12.190;2023-05-20T06:52:26;15.90;97.40
24522;DHT22;12680;57.804;12.190;2023-05-20T06:55:00;16.00;97.20
24522;DHT22;12680;57.804;12.190;2023-05-20T06:57:35;16.10;97.10
24522;DHT22;12680;57.804;12.190;2023-05-20T07:00:04;16.20;96.90
24522;DHT22;12680;57.804;12.190;2023-05-20T07:02:35;16.40;96.90
24522;DHT22;12680;57.804;12.190;2023-05-20T07:05:05;16.50;96.40
24522;DHT22;12680;57.804;12.190;2023-05-20T07:07:35;16.60;96.30
24522;DHT22;12680;57.804;12.190;2023-05-20T07:10:11;16.80;96.00
24522;DHT22;12680;57.804;12.190;2023-05-20T07:12:42;16.90;95.80
24522;DHT22;12680;57.804;12.190;2023-05-20T07:15:10;17.10;95.50
24522;DHT22;12680;57.804;12.190;2023-05-20T07:17:40;17.20;95.10
24522;DHT22;12680;57.804;12.190;2023-05-20T07:20:23;17.30;94.70
24522;DHT22;12680;57.804;12.190;2023-05-20T07:22:58;17.40;94.30
24522;DHT22;12680;57.804;12.190;2023-05-20T07:25:27;17.50;94.10
24522;DHT22;12680;57.804;12.190;2023-05-20T07:28:02;17.60;93.80
24522;DHT22;12680;57.804;12.190;2023-05-20T07:30:35;17.70;93.40
24522;DHT22;12680;57.804;12.190;2023-05-20T07:33:03;17.80;93.20
24522;DHT22;12680;57.804;12.190;2023-05-20T07:35:37;17.80;92.60
24522;DHT22;12680;57.804;12.190;2023-05-20T07:38:04;17.90;92.30
24522;DHT22;12680;57.804;12.190;2023-05-20T07:40:32;17.90;91.80
24522;DHT22;12680;57.804;12.190;2023-05-20T07:43:07;18.00;91.40
24522;DHT22;12680;57.804;12.190;2023-05-20T07:45:38;18.10;91.40
24522;DHT22;12680;57.804;12.190;2023-05-20T07:48:07;18.10;91.30
24522;DHT22;12680;57.804;12.190;2023-05-20T07:50:37;18.20;91.10
24522;DHT22;12680;57.804;12.190;2023-05-20T07:53:05;18.20;90.90
24522;DHT22;12680;57.804;12.190;2023-05-20T07:55:33;18.30;90.80
24522;DHT22;12680;57.804;12.190;2023-05-20T07:58:05;18.40;90.40
24522;DHT22;12680;57.804;12.190;2023-05-20T08:00:32;18.40;90.10
24522;DHT22;12680;57.804;12.190;2023-05-20T08:03:03;18.40;89.50
24522;DHT22;12680;57.804;12.190;2023-05-20T08:05:30;18.50;88.60
24522;DHT22;12680;57.804;12.190;2023-05-20T08:07:58;18.50;88.80
24522;DHT22;12680;57.804;12.190;2023-05-20T08:10:25;18.60;87.80
24522;DHT22;12680;57.804;12.190;2023-05-20T08:12:56;18.70;87.40
24522;DHT22;12680;57.804;12.190;2023-05-20T08:15:27;18.80;87.00
24522;DHT22;12680;57.804;12.190;2023-05-20T08:17:59;19.00;87.10
24522;DHT22;12680;57.804;12.190;2023-05-20T08:20:31;19.10;86.80
24522;DHT22;12680;57.804;12.190;2023-05-20T08:23:05;19.10;86.40
24522;DHT22;12680;57.804;12.190;2023-05-20T08:25:36;19.30;85.40
24522;DHT22;12680;57.804;12.190;2023-05-20T08:28:11;19.40;84.70
24522;DHT22;12680;57.804;12.190;2023-05-20T08:30:42;19.40;82.60
24522;DHT22;12680;57.804;12.190;2023-05-20T08:33:15;19.40;82.60
24522;DHT22;12680;57.804;12.190;2023-05-20T08:35:46;19.50;82.40
24522;DHT22;12680;57.804;12.190;2023-05-20T08:38:17;19.60;82.20
24522;DHT22;12680;57.804;12.190;2023-05-20T08:40:52;19.70;79.60
24522;DHT22;12680;57.804;12.190;2023-05-20T08:43:23;19.70;78.80
24522;DHT22;12680;57.804;12.190;2023-05-20T08:45:51;21.30;80.00
24522;DHT22;12680;57.804;12.190;2023-05-20T08:48:18;19.80;78.50
24522;DHT22;12680;57.804;12.190;2023-05-20T08:50:55;19.90;78.50
24522;DHT22;12680;57.804;12.190;2023-05-20T08:53:23;20.00;77.80
24522;DHT22;12680;57.804;12.190;2023-05-20T08:55:55;20.10;77.40
24522;DHT22;12680;57.804;12.190;2023-05-20T08:58:30;20.20;77.00
24522;DHT22;12680;57.804;12.190;2023-05-20T09:00:59;20.30;77.20
24522;DHT22;12680;57.804;12.190;2023-05-20T09:03:26;20.40;76.70
24522;DHT22;12680;57.804;12.190;2023-05-20T09:06:05;20.40;76.10
24522;DHT22;12680;57.804;12.190;2023-05-20T09:08:33;20.50;75.20
24522;DHT22;12680;57.804;12.190;2023-05-20T09:11:00;20.50;74.90
24522;DHT22;12680;57.804;12.190;2023-05-20T09:13:30;21.10;74.60
24522;DHT22;12680;57.804;12.190;2023-05-20T09:15:59;20.70;73.70
24522;DHT22;12680;57.804;12.190;2023-05-20T09:18:27;20.80;73.60
24522;DHT22;12680;57.804;12.190;2023-05-20T09:20:55;20.90;73.10
24522;DHT22;12680;57.804;12.190;2023-05-20T09:23:23;21.00;73.60
24522;DHT22;12680;57.804;12.190;2023-05-20T09:25:53;21.10;73.70
24522;DHT22;12680;57.804;12.190;2023-05-20T09:28:22;21.30;73.40
24522;DHT22;12680;57.804;12.190;2023-05-20T09:30:57;21.50;73.00
24522;DHT22;12680;57.804;12.190;2023-05-20T09:33:29;21.60;72.00
24522;DHT22;12680;57.804;12.190;2023-05-20T09:36:02;21.60;71.40
24522;DHT22;12680;57.804;12.190;2023-05-20T09:38:36;21.70;71.70
24522;DHT22;12680;57.804;12.190;2023-05-20T09:41:07;21.80;71.40
24522;DHT22;12680;57.804;12.190;2023-05-20T09:43:36;21.90;71.20
24522;DHT22;12680;57.804;12.190;2023-05-20T09:46:04;21.90;70.60
24522;DHT22;12680;57.804;12.190;2023-05-20T09:48:32;21.90;70.30
24522;DHT22;12680;57.804;12.190;2023-05-20T09:51:03;21.90;70.40
24522;DHT22;12680;57.804;12.190;2023-05-20T09:53:31;22.00;70.50
24522;DHT22;12680;57.804;12.190;2023-05-20T09:55:58;22.10;70.00
24522;DHT22;12680;57.804;12.190;2023-05-20T09:58:26;22.20;70.00
24522;DHT22;12680;57.804;12.190;2023-05-20T10:00:53;22.30;69.00
24522;DHT22;12680;57.804;12.190;2023-05-20T10:03:23;22.30;68.70
24522;DHT22;12680;57.804;12.190;2023-05-20T10:06:01;22.40;68.40
24522;DHT22;12680;57.804;12.190;2023-05-20T10:11:31;22.50;68.10
24522;DHT22;12680;57.804;12.190;2023-05-20T10:17:20;22.60;67.00
24522;DHT22;12680;57.804;12.190;2023-05-20T10:19:49;22.70;65.90
24522;DHT22;12680;57.804;12.190;2023-05-20T10:22:26;22.60;65.70
24522;DHT22;12680;57.804;12.190;2023-05-20T10:25:03;22.50;65.50
24522;DHT22;12680;57.804;12.190;2023-05-20T10:27:46;22.50;66.00
24522;DHT22;12680;57.804;12.190;2023-05-20T10:30:20;22.60;65.00
24522;DHT22;12680;57.804;12.190;2023-05-20T10:32:56;22.70;65.00
24522;DHT22;12680;57.804;12.190;2023-05-20T10:35:23;22.80;64.30
24522;DHT22;12680;57.804;12.190;2023-05-20T10:38:09;22.80;64.90
24522;DHT22;12680;57.804;12.190;2023-05-20T10:40:36;23.00;64.70
24522;DHT22;12680;57.804;12.190;2023-05-20T10:43:11;23.10;64.40
24522;DHT22;12680;57.804;12.190;2023-05-20T10:45:52;23.30;63.50
24522;DHT22;12680;57.804;12.190;2023-05-20T10:48:30;23.40;63.50
24522;DHT22;12680;57.804;12.190;2023-05-20T10:51:00;23.50;62.00
24522;DHT22;12680;57.804;12.190;2023-05-20T10:53:39;23.50;62.10
24522;DHT22;12680;57.804;12.190;2023-05-20T10:56:16;23.60;61.40
24522;DHT22;12680;57.804;12.190;2023-05-20T10:58:44;23.70;60.90
24522;DHT22;12680;57.804;12.190;2023-05-20T11:01:11;23.40;60.90
24522;DHT22;12680;57.804;12.190;2023-05-20T11:03:40;23.30;61.50
24522;DHT22;12680;57.804;12.190;2023-05-20T11:06:11;23.30;61.90
24522;DHT22;12680;57.804;12.190;2023-05-20T11:08:40;23.50;61.70
24522;DHT22;12680;57.804;12.190;2023-05-20T11:11:08;23.60;61.20
24522;DHT22;12680;57.804;12.190;2023-05-20T11:13:36;23.70;60.60
24522;DHT22;12680;57.804;12.190;2023-05-20T11:16:03;23.90;60.20
24522;DHT22;12680;57.804;12.190;2023-05-20T11:18:30;24.00;59.50
24522;DHT22;12680;57.804;12.190;2023-05-20T11:20:58;24.00;59.20
24522;DHT22;12680;57.804;12.190;2023-05-20T11:23:27;24.10;59.10
24522;DHT22;12680;57.804;12.190;2023-05-20T11:25:56;24.30;58.80
24522;DHT22;12680;57.804;12.190;2023-05-20T11:28:24;24.40;58.50
24522;DHT22;12680;57.804;12.190;2023-05-20T11:30:52;24.30;57.20
24522;DHT22;12680;57.804;12.190;2023-05-20T11:33:19;24.30;57.40
24522;DHT22;12680;57.804;12.190;2023-05-20T11:35:47;23.90;57.60
24522;DHT22;12680;57.804;12.190;2023-05-20T11:38:15;24.00;57.90
24522;DHT22;12680;57.804;12.190;2023-05-20T11:40:49;24.10;57.60
24522;DHT22;12680;57.804;12.190;2023-05-20T11:43:18;24.30;57.10
24522;DHT22;12680;57.804;12.190;2023-05-20T11:45:47;24.10;56.60
24522;DHT22;12680;57.804;12.190;2023-05-20T11:48:18;24.10;57.20
24522;DHT22;12680;57.804;12.190;2023-05-20T11:50:48;24.20;57.50
24522;DHT22;12680;57.804;12.190;2023-05-20T11:53:16;24.40;56.60
24522;DHT22;12680;57.804;12.190;2023-05-20T11:55:59;24.50;56.60
24522;DHT22;12680;57.804;12.190;2023-05-20T11:58:30;24.50;55.90
24522;DHT22;12680;57.804;12.190;2023-05-20T12:00:58;24.60;55.00
24522;DHT22;12680;57.804;12.190;2023-05-20T12:03:39;24.60;54.70
24522;DHT22;12680;57.804;12.190;2023-05-20T12:06:07;24.60;54.40
24522;DHT22;12680;57.804;12.190;2023-05-20T12:08:37;24.60;56.60
24522;DHT22;12680;57.804;12.190;2023-05-20T12:11:04;24.50;58.70
24522;DHT22;12680;57.804;12.190;2023-05-20T12:13:33;24.50;60.00
24522;DHT22;12680;57.804;12.190;2023-05-20T12:16:01;24.60;60.50
24522;DHT22;12680;57.804;12.190;2023-05-20T12:18:31;24.50;61.10
24522;DHT22;12680;57.804;12.190;2023-05-20T12:21:01;24.30;61.80
24522;DHT22;12680;57.804;12.190;2023-05-20T12:23:27;24.10;62.20
24522;DHT22;12680;57.804;12.190;2023-05-20T12:25:56;24.10;63.10
24522;DHT22;12680;57.804;12.190;2023-05-20T12:28:23;24.20;63.40
24522;DHT22;12680;57.804;12.190;2023-05-20T12:30:50;24.20;63.60
24522;DHT22;12680;57.804;12.190;2023-05-20T12:33:17;24.10;64.00
24522;DHT22;12680;57.804;12.190;2023-05-20T12:35:47;24.00;64.30
24522;DHT22;12680;57.804;12.190;2023-05-20T12:38:13;24.00;65.00
24522;DHT22;12680;57.804;12.190;2023-05-20T12:40:40;23.90;64.70
24522;DHT22;12680;57.804;12.190;2023-05-20T12:43:07;23.60;64.50
24522;DHT22;12680;57.804;12.190;2023-05-20T12:45:34;23.40;65.10
24522;DHT22;12680;57.804;12.190;2023-05-20T12:48:01;23.30;65.40
24522;DHT22;12680;57.804;12.190;2023-05-20T12:50:28;23.40;65.90
24522;DHT22;12680;57.804;12.190;2023-05-20T12:52:55;23.60;66.00
24522;DHT22;12680;57.804;12.190;2023-05-20T12:55:22;23.60;65.80
24522;DHT22;12680;57.804;12.190;2023-05-20T12:57:49;23.50;64.80
24522;DHT22;12680;57.804;12.190;2023-05-20T13:00:17;23.40;65.50
24522;DHT22;12680;57.804;12.190;2023-05-20T13:02:44;23.50;66.00
24522;DHT22;12680;57.804;12.190;2023-05-20T13:05:12;23.60;66.20
24522;DHT22;12680;57.804;12.190;2023-05-20T13:07:39;23.60;65.90
24522;DHT22;12680;57.804;12.190;2023-05-20T13:10:06;23.60;66.30
24522;DHT22;12680;57.804;12.190;2023-05-20T13:12:34;23.70;66.60
24522;DHT22;12680;57.804;12.190;2023-05-20T13:15:01;23.80;66.70
24522;DHT22;12680;57.804;12.190;2023-05-20T13:17:28;23.90;66.40
24522;DHT22;12680;57.804;12.190;2023-05-20T13:19:55;24.00;66.20
24522;DHT22;12680;57.804;12.190;2023-05-20T13:22:22;24.00;65.90
24522;DHT22;12680;57.804;12.190;2023-05-20T13:24:48;23.90;66.10
24522;DHT22;12680;57.804;12.190;2023-05-20T13:27:15;24.10;66.80
24522;DHT22;12680;57.804;12.190;2023-05-20T13:29:42;24.20;66.20
24522;DHT22;12680;57.804;12.190;2023-05-20T13:32:09;24.20;65.10
24522;DHT22;12680;57.804;12.190;2023-05-20T13:34:36;24.10;65.20
24522;DHT22;12680;57.804;12.190;2023-05-20T13:37:04;24.00;65.10
24522;DHT22;12680;57.804;12.190;2023-05-20T13:39:32;23.90;65.40
24522;DHT22;12680;57.804;12.190;2023-05-20T13:41:59;23.80;65.60
24522;DHT22;12680;57.804;12.190;2023-05-20T13:44:26;23.70;65.40
24522;DHT22;12680;57.804;12.190;2023-05-20T13:46:53;23.80;65.50
24522;DHT22;12680;57.804;12.190;2023-05-20T13:49:20;23.80;65.70
24522;DHT22;12680;57.804;12.190;2023-05-20T13:51:47;23.80;64.30
24522;DHT22;12680;57.804;12.190;2023-05-20T13:54:14;23.60;63.50
24522;DHT22;12680;57.804;12.190;2023-05-20T13:56:41;23.80;63.70
24522;DHT22;12680;57.804;12.190;2023-05-20T13:59:08;23.80;63.40
24522;DHT22;12680;57.804;12.190;2023-05-20T14:01:35;23.80;63.60
24522;DHT22;12680;57.804;12.190;2023-05-20T14:04:06;23.70;63.10
24522;DHT22;12680;57.804;12.190;2023-05-20T14:06:33;23.70;63.40
24522;DHT22;12680;57.804;12.190;2023-05-20T14:09:02;23.60;63.10
24522;DHT22;12680;57.804;12.190;2023-05-20T14:11:28;23.50;62.60
24522;DHT22;12680;57.804;12.190;2023-05-20T14:13:55;23.50;62.70
24522;DHT22;12680;57.804;12.190;2023-05-20T14:16:22;23.40;62.80
24522;DHT22;12680;57.804;12.190;2023-05-20T14:18:49;23.20;62.50
24522;DHT22;12680;57.804;12.190;2023-05-20T14:21:16;23.10;62.70
24522;DHT22;12680;57.804;12.190;2023-05-20T14:23:43;23.00;63.00
24522;DHT22;12680;57.804;12.190;2023-05-20T14:26:11;22.90;63.20
24522;DHT22;12680;57.804;12.190;2023-05-20T14:28:38;22.90;63.20
24522;DHT22;12680;57.804;12.190;2023-05-20T14:31:05;22.90;62.50
24522;DHT22;12680;57.804;12.190;2023-05-20T14:33:36;22.90;61.90
24522;DHT22;12680;57.804;12.190;2023-05-20T14:36:03;22.80;62.10
24522;DHT22;12680;57.804;12.190;2023-05-20T14:38:30;22.80;62.10
24522;DHT22;12680;57.804;12.190;2023-05-20T14:40:57;22.90;62.50
24522;DHT22;12680;57.804;12.190;2023-05-20T14:43:24;22.90;62.70
24522;DHT22;12680;57.804;12.190;2023-05-20T14:45:52;22.90;63.00
24522;DHT22;12680;57.804;12.190;2023-05-20T14:48:19;23.10;64.10
24522;DHT22;12680;57.804;12.190;2023-05-20T14:50:46;23.30;63.70
24522;DHT22;12680;57.804;12.190;2023-05-20T14:53:16;23.00;62.20
24522;DHT22;12680;57.804;12.190;2023-05-20T14:55:47;22.80;62.60
24522;DHT22;12680;57.804;12.190;2023-05-20T14:58:14;22.70;63.10
24522;DHT22;12680;57.804;12.190;2023-05-20T15:00:41;22.60;63.10
24522;DHT22;12680;57.804;12.190;2023-05-20T15:03:11;22.50;62.90
24522;DHT22;12680;57.804;12.190;2023-05-20T15:05:39;22.40;63.40
24522;DHT22;12680;57.804;12.190;2023-05-20T15:08:09;22.40;63.70
24522;DHT22;12680;57.804;12.190;2023-05-20T15:10:40;22.50;63.90
24522;DHT22;12680;57.804;12.190;2023-05-20T15:13:08;22.50;64.00
24522;DHT22;12680;57.804;12.190;2023-05-20T15:15:42;22.50;64.30
24522;DHT22;12680;57.804;12.190;2023-05-20T15:18:11;22.50;64.40
24522;DHT22;12680;57.804;12.190;2023-05-20T15:20:42;22.60;64.50
24522;DHT22;12680;57.804;12.190;2023-05-20T15:23:09;22.60;64.60
24522;DHT22;12680;57.804;12.190;2023-05-20T15:25:37;22.70;64.60
24522;DHT22;12680;57.804;12.190;2023-05-20T15:28:06;22.60;64.10
24522;DHT22;12680;57.804;12.190;2023-05-20T15:30:33;22.50;64.00
24522;DHT22;12680;57.804;12.190;2023-05-20T15:33:04;22.40;64.10
24522;DHT22;12680;57.804;12.190;2023-05-20T15:35:35;22.50;64.30